sensor_id;sensor_type;location;lat;lon;timestamp;temperature;humidity
1800;DHT22;919;48.274;12.292;2023-05-24T00:00:09;13.50;99.90
1800;DHT22;919;48.274;12.292;2023-05-24T00:02:37;13.50;99.90
1800;DHT22;919;48.274;12.292;2023-05-24T00:05:07;13.50;99.90
1800;DHT22;919;48.274;12.292;2023-05-24T00:07:36;13.50;99.90
1800;DHT22;919;48.274;12.292;2023-05-24T00:10:04;13.50;99.90
1800;DHT22;919;48.274;12.292;2023-05-24T00:12:30;13.50;99.90
1800;DHT22;919;48.274;12.292;2023-05-24T00:14:58;13.50;99.90
1800;DHT22;919;48.274;12.292;2023-05-24T00:17:25;13.60;99.90
1800;DHT22;919;48.274;12.292;2023-05-24T00:19:54;13.60;99.90
1800;DHT22;919;48.274;12.292;2023-05-24T00:22:21;13.60;99.90
1800;DHT22;919;48.274;12.292;2023-05-24T00:24:49;13.50;99.90
1800;DHT22;919;48.274;12.292;2023-05-24T00:27:16;13.50;99.90
1800;DHT22;919;48.274;12.292;2023-05-24T00:29:43;13.40;99.90
1800;DHT22;919;48.274;12.292;2023-05-24T00:32:09;13.50;99.90
1800;DHT22;919;48.274;12.292;2023-05-24T00:34:36;13.40;99.90
1800;DHT22;919;48.274;12.292;2023-05-24T00:37:03;13.50;99.90
1800;DHT22;919;48.274;12.292;2023-05-24T00:39:30;13.40;99.90
1800;DHT22;919;48.274;12.292;2023-05-24T00:41:59;13.40;99.90
1800;DHT22;919;48.274;12.292;2023-05-24T00:44:25;13.40;99.90
1800;DHT22;919;48.274;12.292;2023-05-24T00:46:52;13.40;99.90
1800;DHT22;919;48.274;12.292;2023-05-24T00:49:20;13.40;99.90
1800;DHT22;919;48.274;12.292;2023-05-24T00:51:47;13.40;99.90
1800;DHT22;919;48.274;12.292;2023-05-24T00:54:14;13.40;99.90
1800;DHT22;919;48.274;12.292;2023-05-24T00:56:41;13.40;99.90
1800;DHT22;919;48.274;12.292;2023-05-24T00:59:09;13.50;99.90
1800;DHT22;919;48.274;12.292;2023-05-24T01:01:36;13.50;99.90
1800;DHT22;919;48.274;12.292;2023-05-24T01:04:03;13.60;99.90
1800;DHT22;919;48.274;12.292;2023-05-24T01:06:32;13.60;99.90
1800;DHT22;919;48.274;12.292;2023-05-24T01:09:10;13.70;99.90
1800;DHT22;919;48.274;12.292;2023-05-24T01:11:52;13.80;99.90
1800;DHT22;919;48.274;12.292;2023-05-24T01:14:26;13.70;99.90
1800;DHT22;919;48.274;12.292;2023-05-24T01:16:57;13.80;99.90
1800;DHT22;919;48.274;12.292;2023-05-24T01:19:51;13.70;99.90
1800;DHT22;919;48.274;12.292;2023-05-24T01:22:36;13.70;99.90
1800;DHT22;919;48.274;12.292;2023-05-24T01:25:08;13.70;99.90
1800;DHT22;919;48.274;12.292;2023-05-24T01:27:39;13.70;99.90
1800;DHT22;919;48.274;12.292;2023-05-24T01:30:07;13.70;99.90
1800;DHT22;919;48.274;12.292;2023-05-24T01:32:34;13.70;99.90
1800;DHT22;919;48.274;12.292;2023-05-24T01:35:03;13.60;99.90
1800;DHT22;919;48.274;12.292;2023-05-24T01:37:30;13.60;99.90
1800;DHT22;919;48.274;12.292;2023-05-24T01:39:57;13.60;99.90
1800;DHT22;919;48.274;12.292;2023-05-24T01:42:26;13.70;99.90
1800;DHT22;919;48.274;12.292;2023-05-24T01:45:03;13.70;99.90
1800;DHT22;919;48.274;12.292;2023-05-24T01:47:41;13.70;99.90
1800;DHT22;919;48.274;12.292;2023-05-24T01:50:16;13.70;99.90
1800;DHT22;919;48.274;12.292;2023-05-24T01:52:43;13.70;99.90
1800;DHT22;919;48.274;12.292;2023-05-24T01:55:14;13.70;99.90
1800;DHT22;919;48.274;12.292;2023-05-24T01:57:43;13.70;99.90
1800;DHT22;919;48.274;12.292;2023-05-24T02:00:14;13.80;99.90
1800;DHT22;919;48.274;12.292;2023-05-24T02:02:41;13.80;99.90
1800;DHT22;919;48.274;12.292;2023-05-24T02:05:09;13.80;99.90
1800;DHT22;919;48.274;12.292;2023-05-24T02:07:35;13.80;99.90
1800;DHT22;919;48.274;12.292;2023-05-24T02:10:03;13.80;99.90
1800;DHT22;919;48.274;12.292;2023-05-24T02:12:30;13.80;99.90
1800;DHT22;919;48.274;12.292;2023-05-24T02:14:57;13.80;99.90
1800;DHT22;919;48.274;12.292;2023-05-24T02:17:26;13.80;99.90
1800;DHT22;919;48.274;12.292;2023-05-24T02:19:52;13.80;99.90
1800;DHT22;919;48.274;12.292;2023-05-24T02:22:19;13.80;99.90
1800;DHT22;919;48.274;12.292;2023-05-24T02:24:47;13.90;99.90
1800;DHT22;919;48.274;12.292;2023-05-24T02:27:14;13.80;99.90
1800;DHT22;919;48.274;12.292;2023-05-24T02:29:41;13.80;99.90
1800;DHT22;919;48.274;12.292;2023-05-24T02:32:07;13.90;99.90
1800;DHT22;919;48.274;12.292;2023-05-24T02:34:36;13.90;99.90
1800;DHT22;919;48.274;12.292;2023-05-24T02:37:02;13.90;99.90
1800;DHT22;919;48.274;12.292;2023-05-24T02:39:30;13.90;99.90
1800;DHT22;919;48.274;12.292;2023-05-24T02:41:57;13.90;99.90
1800;DHT22;919;48.274;12.292;2023-05-24T02:44:24;13.90;99.90
1800;DHT22;919;48.274;12.292;2023-05-24T02:46:50;13.90;99.90
1800;DHT22;919;48.274;12.292;2023-05-24T02:49:17;13.90;99.90
1800;DHT22;919;48.274;12.292;2023-05-24T02:51:45;13.90;99.90
1800;DHT22;919;48.274;12.292;2023-05-24T02:54:12;13.90;99.90
1800;DHT22;919;48.274;12.292;2023-05-24T02:56:38;13.90;99.90
1800;DHT22;919;48.274;12.292;2023-05-24T02:59:05;13.90;99.90
1800;DHT22;919;48.274;12.292;2023-05-24T03:01:32;13.90;99.90
1800;DHT22;919;48.274;12.292;2023-05-24T03:04:00;13.90;99.90
1800;DHT22;919;48.274;12.292;2023-05-24T03:06:26;13.90;99.90
1800;DHT22;919;48.274;12.292;2023-05-24T03:08:55;13.90;99.90
1800;DHT22;919;48.274;12.292;2023-05-24T03:11:23;13.90;99.90
1800;DHT22;919;48.274;12.292;2023-05-24T03:13:50;13.90;99.90
1800;DHT22;919;48.274;12.292;2023-05-24T03:16:17;13.90;99.90
1800;DHT22;919;48.274;12.292;2023-05-24T03:18:45;13.90;99.90
1800;DHT22;919;48.274;12.292;2023-05-24T03:21:15;13.90;99.90
1800;DHT22;919;48.274;12.292;2023-05-24T03:23:42;13.90;99.90
1800;DHT22;919;48.274;12.292;2023-05-24T03:26:10;13.90;99.90
1800;DHT22;919;48.274;12.292;2023-05-24T03:28:37;14.00;99.90
1800;DHT22;919;48.274;12.292;2023-05-24T03:31:05;13.90;99.90
1800;DHT22;919;48.274;12.292;2023-05-24T03:33:32;13.90;99.90
1800;DHT22;919;48.274;12.292;2023-05-24T03:35:58;13.90;99.90
1800;DHT22;919;48.274;12.292;2023-05-24T03:38:25;13.90;99.90
1800;DHT22;919;48.274;12.292;2023-05-24T03:40:52;13.90;99.90
1800;DHT22;919;48.274;12.292;2023-05-24T03:43:20;13.90;99.90
1800;DHT22;919;48.274;12.292;2023-05-24T03:45:47;13.90;99.90
1800;DHT22;919;48.274;12.292;2023-05-24T03:48:13;13.90;99.90
1800;DHT22;919;48.274;12.292;2023-05-24T03:50:40;13.90;99.90
1800;DHT22;919;48.274;12.292;2023-05-24T03:53:07;14.00;99.90
1800;DHT22;919;48.274;12.292;2023-05-24T03:55:34;14.00;99.90
1800;DHT22;919;48.274;12.292;2023-05-24T03:58:01;14.00;99.90
1800;DHT22;919;48.274;12.292;2023-05-24T04:00:29;14.00;99.90
1800;DHT22;919;48.274;12.292;2023-05-24T04:02:56;14.10;99.90
1800;DHT22;919;48.274;12.292;2023-05-24T04:05:24;14.10;99.90
1800;DHT22;919;48.274;12.292;2023-05-24T04:07:54;14.10;99.90
1800;DHT22;919;48.274;12.292;2023-05-24T04:10:21;14.10;99.90
1800;DHT22;919;48.274;12.292;2023-05-24T04:12:48;14.20;99.90
1800;DHT22;919;48.274;12.292;2023-05-24T04:15:15;14.30;99.90
1800;DHT22;919;48.274;12.292;2023-05-24T04:17:43;14.30;99.90
1800;DHT22;919;48.274;12.292;2023-05-24T04:20:11;14.30;99.90
1800;DHT22;919;48.274;12.292;2023-05-24T04:22:38;14.30;99.90
1800;DHT22;919;48.274;12.292;2023-05-24T04:25:05;14.40;99.90
1800;DHT22;919;48.274;12.292;2023-05-24T04:27:34;14.30;99.90
1800;DHT22;919;48.274;12.292;2023-05-24T04:30:01;14.30;99.90
1800;DHT22;919;48.274;12.292;2023-05-24T04:32:27;14.30;99.90
1800;DHT22;919;48.274;12.292;2023-05-24T04:34:56;14.30;99.90
1800;DHT22;919;48.274;12.292;2023-05-24T04:37:23;14.40;99.90
1800;DHT22;919;48.274;12.292;2023-05-24T04:39:49;14.40;99.90
1800;DHT22;919;48.274;12.292;2023-05-24T04:42:16;14.50;99.90
1800;DHT22;919;48.274;12.292;2023-05-24T04:44:43;14.50;99.90
1800;DHT22;919;48.274;12.292;2023-05-24T04:47:10;14.60;99.90
1800;DHT22;919;48.274;12.292;2023-05-24T04:49:37;14.60;99.90
1800;DHT22;919;48.274;12.292;2023-05-24T04:52:06;14.70;99.90
1800;DHT22;919;48.274;12.292;2023-05-24T04:54:33;14.70;99.90
1800;DHT22;919;48.274;12.292;2023-05-24T04:57:00;14.80;99.90
1800;DHT22;919;48.274;12.292;2023-05-24T04:59:26;14.80;99.90
1800;DHT22;919;48.274;12.292;2023-05-24T05:01:53;14.80;99.90
1800;DHT22;919;48.274;12.292;2023-05-24T05:04:20;14.80;99.90
1800;DHT22;919;48.274;12.292;2023-05-24T05:06:47;14.90;99.90
1800;DHT22;919;48.274;12.292;2023-05-24T05:09:15;15.00;99.90
1800;DHT22;919;48.274;12.292;2023-05-24T05:11:42;15.00;99.90
1800;DHT22;919;48.274;12.292;2023-05-24T05:14:09;15.10;99.90
1800;DHT22;919;48.274;12.292;2023-05-24T05:16:37;15.00;99.90
1800;DHT22;919;48.274;12.292;2023-05-24T05:19:04;15.00;99.90
1800;DHT22;919;48.274;12.292;2023-05-24T05:21:31;14.90;99.90
1800;DHT22;919;48.274;12.292;2023-05-24T05:23:58;14.90;99.90
1800;DHT22;919;48.274;12.292;2023-05-24T05:26:27;15.00;99.90
1800;DHT22;919;48.274;12.292;2023-05-24T05:28:54;15.00;99.90
1800;DHT22;919;48.274;12.292;2023-05-24T05:31:21;14.90;99.90
1800;DHT22;919;48.274;12.292;2023-05-24T05:33:48;15.00;99.90
1800;DHT22;919;48.274;12.292;2023-05-24T05:36:15;15.00;99.90
1800;DHT22;919;48.274;12.292;2023-05-24T05:38:42;14.90;99.90
1800;DHT22;919;48.274;12.292;2023-05-24T05:41:09;14.90;99.90
1800;DHT22;919;48.274;12.292;2023-05-24T05:43:37;14.80;99.90
1800;DHT22;919;48.274;12.292;2023-05-24T05:46:04;14.80;99.90
1800;DHT22;919;48.274;12.292;2023-05-24T05:48:31;14.70;99.90
1800;DHT22;919;48.274;12.292;2023-05-24T05:50:58;14.80;99.90
1800;DHT22;919;48.274;12.292;2023-05-24T05:53:25;14.90;99.90
1800;DHT22;919;48.274;12.292;2023-05-24T05:55:52;15.00;99.90
1800;DHT22;919;48.274;12.292;2023-05-24T05:58:18;15.00;99.90
1800;DHT22;919;48.274;12.292;2023-05-24T06:00:46;15.00;99.90
1800;DHT22;919;48.274;12.292;2023-05-24T06:03:13;15.10;99.90
1800;DHT22;919;48.274;12.292;2023-05-24T06:05:40;15.00;99.90
1800;DHT22;919;48.274;12.292;2023-05-24T06:08:07;15.10;99.90
1800;DHT22;919;48.274;12.292;2023-05-24T06:10:34;15.20;99.90
1800;DHT22;919;48.274;12.292;2023-05-24T06:13:01;15.30;99.90
1800;DHT22;919;48.274;12.292;2023-05-24T06:15:28;15.60;99.90
1800;DHT22;919;48.274;12.292;2023-05-24T06:17:59;15.90;99.90
1800;DHT22;919;48.274;12.292;2023-05-24T06:20:26;16.00;99.90
1800;DHT22;919;48.274;12.292;2023-05-24T06:22:53;16.10;99.90
1800;DHT22;919;48.274;12.292;2023-05-24T06:25:19;16.30;99.90
1800;DHT22;919;48.274;12.292;2023-05-24T06:27:48;16.40;99.90
1800;DHT22;919;48.274;12.292;2023-05-24T06:30:14;16.50;99.90
1800;DHT22;919;48.274;12.292;2023-05-24T06:32:41;16.70;99.90
1800;DHT22;919;48.274;12.292;2023-05-24T06:35:09;16.70;99.90
1800;DHT22;919;48.274;12.292;2023-05-24T06:37:36;16.60;99.90
1800;DHT22;919;48.274;12.292;2023-05-24T06:40:05;16.60;99.90
1800;DHT22;919;48.274;12.292;2023-05-24T06:42:33;16.60;99.90
1800;DHT22;919;48.274;12.292;2023-05-24T06:45:00;16.60;99.90
1800;DHT22;919;48.274;12.292;2023-05-24T06:47:26;16.70;99.90
1800;DHT22;919;48.274;12.292;2023-05-24T06:49:53;16.90;99.90
1800;DHT22;919;48.274;12.292;2023-05-24T06:52:22;17.00;99.90
1800;DHT22;919;48.274;12.292;2023-05-24T06:54:49;17.20;99.90
1800;DHT22;919;48.274;12.292;2023-05-24T06:57:16;17.10;99.90
1800;DHT22;919;48.274;12.292;2023-05-24T06:59:43;17.00;99.90
1800;DHT22;919;48.274;12.292;2023-05-24T07:02:09;17.10;99.90
1800;DHT22;919;48.274;12.292;2023-05-24T07:04:36;17.20;99.90
1800;DHT22;919;48.274;12.292;2023-05-24T07:07:05;17.20;99.90
1800;DHT22;919;48.274;12.292;2023-05-24T07:09:33;17.20;99.90
1800;DHT22;919;48.274;12.292;2023-05-24T07:12:00;17.00;99.90
1800;DHT22;919;48.274;12.292;2023-05-24T07:14:27;16.80;99.90
1800;DHT22;919;48.274;12.292;2023-05-24T07:16:54;16.80;99.90
1800;DHT22;919;48.274;12.292;2023-05-24T07:19:24;16.80;99.90
1800;DHT22;919;48.274;12.292;2023-05-24T07:21:53;16.70;99.90
1800;DHT22;919;48.274;12.292;2023-05-24T07:24:20;16.80;99.90
1800;DHT22;919;48.274;12.292;2023-05-24T07:26:48;16.80;99.90
1800;DHT22;919;48.274;12.292;2023-05-24T07:29:15;16.80;99.90
1800;DHT22;919;48.274;12.292;2023-05-24T07:31:42;16.70;99.90
1800;DHT22;919;48.274;12.292;2023-05-24T07:34:08;16.70;99.90
1800;DHT22;919;48.274;12.292;2023-05-24T07:36:35;16.70;99.90
1800;DHT22;919;48.274;12.292;2023-05-24T07:39:02;16.90;99.90
1800;DHT22;919;48.274;12.292;2023-05-24T07:41:30;17.20;99.90
1800;DHT22;919;48.274;12.292;2023-05-24T07:43:59;17.20;99.90
1800;DHT22;919;48.274;12.292;2023-05-24T07:46:26;17.10;99.90
1800;DHT22;919;48.274;12.292;2023-05-24T07:48:53;17.30;99.90
1800;DHT22;919;48.274;12.292;2023-05-24T07:51:19;17.30;99.90
1800;DHT22;919;48.274;12.292;2023-05-24T07:53:47;17.30;99.90
1800;DHT22;919;48.274;12.292;2023-05-24T07:56:13;17.50;99.90
1800;DHT22;919;48.274;12.292;2023-05-24T07:58:40;17.70;99.90
1800;DHT22;919;48.274;12.292;2023-05-24T08:01:09;18.00;99.90
1800;DHT22;919;48.274;12.292;2023-05-24T08:03:36;18.10;99.90
1800;DHT22;919;48.274;12.292;2023-05-24T08:06:03;18.20;99.90
1800;DHT22;919;48.274;12.292;2023-05-24T08:08:30;18.20;99.90
1800;DHT22;919;48.274;12.292;2023-05-24T08:10:57;18.40;99.90
1800;DHT22;919;48.274;12.292;2023-05-24T08:13:23;18.50;99.90
1800;DHT22;919;48.274;12.292;2023-05-24T08:15:50;18.60;99.90
1800;DHT22;919;48.274;12.292;2023-05-24T08:18:18;18.60;99.90
1800;DHT22;919;48.274;12.292;2023-05-24T08:20:45;18.80;99.90
1800;DHT22;919;48.274;12.292;2023-05-24T08:23:12;18.80;99.90
1800;DHT22;919;48.274;12.292;2023-05-24T08:25:38;18.70;99.90
1800;DHT22;919;48.274;12.292;2023-05-24T08:28:05;18.60;99.90
1800;DHT22;919;48.274;12.292;2023-05-24T08:30:32;18.50;99.90
1800;DHT22;919;48.274;12.292;2023-05-24T08:32:59;18.50;99.90
1800;DHT22;919;48.274;12.292;2023-05-24T08:35:27;18.60;99.90
1800;DHT22;919;48.274;12.292;2023-05-24T08:37:54;18.60;99.90
1800;DHT22;919;48.274;12.292;2023-05-24T08:40:21;18.70;99.90
1800;DHT22;919;48.274;12.292;2023-05-24T08:42:49;18.70;99.90
1800;DHT22;919;48.274;12.292;2023-05-24T08:45:18;18.70;99.90
1800;DHT22;919;48.274;12.292;2023-05-24T08:47:47;18.70;99.90
1800;DHT22;919;48.274;12.292;2023-05-24T08:50:15;18.70;99.90
1800;DHT22;919;48.274;12.292;2023-05-24T08:52:45;18.70;99.90
1800;DHT22;919;48.274;12.292;2023-05-24T08:55:11;18.60;99.90
1800;DHT22;919;48.274;12.292;2023-05-24T08:57:38;18.40;99.90
1800;DHT22;919;48.274;12.292;2023-05-24T09:00:07;18.70;99.90
1800;DHT22;919;48.274;12.292;2023-05-24T09:02:37;18.70;99.90
1800;DHT22;919;48.274;12.292;2023-05-24T09:05:05;18.90;99.90
1800;DHT22;919;48.274;12.292;2023-05-24T09:07:36;18.90;99.90
1800;DHT22;919;48.274;12.292;2023-05-24T09:10:06;18.80;99.90
1800;DHT22;919;48.274;12.292;2023-05-24T09:12:34;18.90;99.90
1800;DHT22;919;48.274;12.292;2023-05-24T09:15:02;19.00;99.90
1800;DHT22;919;48.274;12.292;2023-05-24T09:17:29;19.00;99.90
1800;DHT22;919;48.274;12.292;2023-05-24T09:19:57;19.00;99.90
1800;DHT22;919;48.274;12.292;2023-05-24T09:22:26;18.80;99.90
1800;DHT22;919;48.274;12.292;2023-05-24T09:24:56;18.90;99.90
1800;DHT22;919;48.274;12.292;2023-05-24T09:27:25;19.20;99.90
1800;DHT22;919;48.274;12.292;2023-05-24T09:29:52;19.50;99.90
1800;DHT22;919;48.274;12.292;2023-05-24T09:32:21;19.80;99.90
1800;DHT22;919;48.274;12.292;2023-05-24T09:34:50;19.90;99.90
1800;DHT22;919;48.274;12.292;2023-05-24T09:37:19;20.00;99.90
1800;DHT22;919;48.274;12.292;2023-05-24T09:39:48;19.80;99.90
1800;DHT22;919;48.274;12.292;2023-05-24T09:42:16;19.50;99.90
1800;DHT22;919;48.274;12.292;2023-05-24T09:44:46;19.30;99.90
1800;DHT22;919;48.274;12.292;2023-05-24T09:47:13;19.10;99.90
1800;DHT22;919;48.274;12.292;2023-05-24T09:49:40;19.20;99.90
1800;DHT22;919;48.274;12.292;2023-05-24T09:52:08;19.20;99.90
1800;DHT22;919;48.274;12.292;2023-05-24T09:54:39;19.30;99.90
1800;DHT22;919;48.274;12.292;2023-05-24T09:57:06;19.40;99.90
1800;DHT22;919;48.274;12.292;2023-05-24T09:59:33;19.40;99.90
1800;DHT22;919;48.274;12.292;2023-05-24T10:02:08;19.20;99.90
1800;DHT22;919;48.274;12.292;2023-05-24T10:04:36;18.80;99.90
1800;DHT22;919;48.274;12.292;2023-05-24T10:07:03;18.60;99.90
1800;DHT22;919;48.274;12.292;2023-05-24T10:09:31;18.60;99.90
1800;DHT22;919;48.274;12.292;2023-05-24T10:12:01;18.80;99.90
1800;DHT22;919;48.274;12.292;2023-05-24T10:14:31;18.70;99.90
1800;DHT22;919;48.274;12.292;2023-05-24T10:16:58;18.80;99.90
1800;DHT22;919;48.274;12.292;2023-05-24T10:19:26;18.80;99.90
1800;DHT22;919;48.274;12.292;2023-05-24T10:21:55;18.90;99.90
1800;DHT22;919;48.274;12.292;2023-05-24T10:24:25;19.00;99.90
1800;DHT22;919;48.274;12.292;2023-05-24T10:26:55;19.10;99.90
1800;DHT22;919;48.274;12.292;2023-05-24T10:29:30;19.20;99.90
1800;DHT22;919;48.274;12.292;2023-05-24T10:31:59;19.20;99.90
1800;DHT22;919;48.274;12.292;2023-05-24T10:34:28;19.20;99.90
1800;DHT22;919;48.274;12.292;2023-05-24T10:36:56;19.00;99.90
1800;DHT22;919;48.274;12.292;2023-05-24T10:39:24;18.70;99.90
1800;DHT22;919;48.274;12.292;2023-05-24T10:41:51;18.70;99.90
1800;DHT22;919;48.274;12.292;2023-05-24T10:44:21;18.70;99.90
1800;DHT22;919;48.274;12.292;2023-05-24T10:47:07;18.70;99.90
1800;DHT22;919;48.274;12.292;2023-05-24T10:49:37;18.70;99.90
1800;DHT22;919;48.274;12.292;2023-05-24T10:52:08;18.60;99.90
1800;DHT22;919;48.274;12.292;2023-05-24T10:54:35;18.50;99.90
1800;DHT22;919;48.274;12.292;2023-05-24T10:57:05;18.50;99.90
1800;DHT22;919;48.274;12.292;2023-05-24T10:59:34;18.50;99.90
1800;DHT22;919;48.274;12.292;2023-05-24T11:02:05;18.50;99.90
1800;DHT22;919;48.274;12.292;2023-05-24T11:04:39;18.40;99.90
1800;DHT22;919;48.274;12.292;2023-05-24T11:07:08;18.40;99.90
1800;DHT22;919;48.274;12.292;2023-05-24T11:09:35;18.40;99.90
1800;DHT22;919;48.274;12.292;2023-05-24T11:12:03;18.30;99.90
1800;DHT22;919;48.274;12.292;2023-05-24T11:14:35;18.20;99.90
1800;DHT22;919;48.274;12.292;2023-05-24T11:17:02;18.30;99.90
1800;DHT22;919;48.274;12.292;2023-05-24T11:19:32;18.40;99.90
1800;DHT22;919;48.274;12.292;2023-05-24T11:22:02;18.30;99.90
1800;DHT22;919;48.274;12.292;2023-05-24T11:24:29;18.40;99.90
1800;DHT22;919;48.274;12.292;2023-05-24T11:26:56;18.40;99.90
1800;DHT22;919;48.274;12.292;2023-05-24T11:29:23;18.20;99.90
1800;DHT22;919;48.274;12.292;2023-05-24T11:31:51;18.10;99.90
1800;DHT22;919;48.274;12.292;2023-05-24T11:34:19;18.10;99.90
1800;DHT22;919;48.274;12.292;2023-05-24T11:36:46;18.10;99.90
1800;DHT22;919;48.274;12.292;2023-05-24T11:39:15;18.10;99.90
1800;DHT22;919;48.274;12.292;2023-05-24T11:41:42;18.00;99.90
1800;DHT22;919;48.274;12.292;2023-05-24T11:44:10;18.00;99.90
1800;DHT22;919;48.274;12.292;2023-05-24T11:46:38;18.00;99.90
1800;DHT22;919;48.274;12.292;2023-05-24T11:49:05;18.00;99.90
1800;DHT22;919;48.274;12.292;2023-05-24T11:51:33;18.00;99.90
1800;DHT22;919;48.274;12.292;2023-05-24T11:54:00;18.00;99.90
1800;DHT22;919;48.274;12.292;2023-05-24T11:56:30;18.00;99.90
1800;DHT22;919;48.274;12.292;2023-05-24T11:59:06;18.10;99.90
1800;DHT22;919;48.274;12.292;2023-05-24T12:01:34;18.00;99.90
1800;DHT22;919;48.274;12.292;2023-05-24T12:04:00;18.20;99.90
1800;DHT22;919;48.274;12.292;2023-05-24T12:06:33;18.20;99.90
1800;DHT22;919;48.274;12.292;2023-05-24T12:09:01;18.30;99.90
1800;DHT22;919;48.274;12.292;2023-05-24T12:11:31;18.30;99.90
1800;DHT22;919;48.274;12.292;2023-05-24T12:13:58;18.20;99.90
1800;DHT22;919;48.274;12.292;2023-05-24T12:16:25;18.20;99.90
1800;DHT22;919;48.274;12.292;2023-05-24T12:18:56;18.10;99.90
1800;DHT22;919;48.274;12.292;2023-05-24T12:21:23;18.20;99.90
1800;DHT22;919;48.274;12.292;2023-05-24T12:23:50;18.30;99.90
1800;DHT22;919;48.274;12.292;2023-05-24T12:26:17;18.30;99.90
1800;DHT22;919;48.274;12.292;2023-05-24T12:28:47;18.30;99.90
1800;DHT22;919;48.274;12.292;2023-05-24T12:31:18;18.30;99.90
1800;DHT22;919;48.274;12.292;2023-05-24T12:33:46;18.30;99.90
1800;DHT22;919;48.274;12.292;2023-05-24T12:36:13;18.20;99.90
1800;DHT22;919;48.274;12.292;2023-05-24T12:38:39;18.20;99.90
1800;DHT22;919;48.274;12.292;2023-05-24T12:41:06;18.20;99.90
1800;DHT22;919;48.274;12.292;2023-05-24T12:43:33;18.10;99.90
1800;DHT22;919;48.274;12.292;2023-05-24T12:46:01;18.00;99.90
1800;DHT22;919;48.274;12.292;2023-05-24T12:48:28;17.90;99.90
1800;DHT22;919;48.274;12.292;2023-05-24T12:50:55;17.80;99.90
1800;DHT22;919;48.274;12.292;2023-05-24T12:53:22;17.70;99.90
1800;DHT22;919;48.274;12.292;2023-05-24T12:55:50;17.60;99.90
1800;DHT22;919;48.274;12.292;2023-05-24T12:58:20;17.40;99.90
1800;DHT22;919;48.274;12.292;2023-05-24T13:00:47;17.40;99.90
1800;DHT22;919;48.274;12.292;2023-05-24T13:03:16;17.20;99.90
1800;DHT22;919;48.274;12.292;2023-05-24T13:05:42;17.40;99.90
1800;DHT22;919;48.274;12.292;2023-05-24T13:08:10;17.40;99.90
1800;DHT22;919;48.274;12.292;2023-05-24T13:10:37;17.40;99.90
1800;DHT22;919;48.274;12.292;2023-05-24T13:13:05;17.50;99.90
1800;DHT22;919;48.274;12.292;2023-05-24T13:15:32;17.60;99.90
1800;DHT22;919;48.274;12.292;2023-05-24T13:17:58;17.80;99.90
1800;DHT22;919;48.274;12.292;2023-05-24T13:20:26;17.80;99.90
1800;DHT22;919;48.274;12.292;2023-05-24T13:22:53;17.90;99.90
1800;DHT22;919;48.274;12.292;2023-05-24T13:25:20;18.00;99.90
1800;DHT22;919;48.274;12.292;2023-05-24T13:27:47;18.00;99.90
1800;DHT22;919;48.274;12.292;2023-05-24T13:30:14;18.00;99.90
1800;DHT22;919;48.274;12.292;2023-05-24T13:32:41;18.00;99.90
1800;DHT22;919;48.274;12.292;2023-05-24T13:35:08;18.00;99.90
1800;DHT22;919;48.274;12.292;2023-05-24T13:37:37;18.20;99.90
1800;DHT22;919;48.274;12.292;2023-05-24T13:40:04;18.20;99.90
1800;DHT22;919;48.274;12.292;2023-05-24T13:42:31;18.10;99.90
1800;DHT22;919;48.274;12.292;2023-05-24T13:44:58;18.00;99.90
1800;DHT22;919;48.274;12.292;2023-05-24T13:47:25;18.20;99.90
1800;DHT22;919;48.274;12.292;2023-05-24T13:49:52;18.20;99.90
1800;DHT22;919;48.274;12.292;2023-05-24T13:52:18;18.20;99.90
1800;DHT22;919;48.274;12.292;2023-05-24T13:54:47;18.20;99.90
1800;DHT22;919;48.274;12.292;2023-05-24T13:57:14;18.30;99.90
1800;DHT22;919;48.274;12.292;2023-05-24T13:59:41;18.40;99.90
1800;DHT22;919;48.274;12.292;2023-05-24T14:02:08;18.40;99.90
1800;DHT22;919;48.274;12.292;2023-05-24T14:04:35;18.50;99.90
1800;DHT22;919;48.274;12.292;2023-05-24T14:07:01;18.40;99.90
1800;DHT22;919;48.274;12.292;2023-05-24T14:09:29;18.40;99.90
1800;DHT22;919;48.274;12.292;2023-05-24T14:11:57;18.50;99.90
1800;DHT22;919;48.274;12.292;2023-05-24T14:14:26;18.70;99.90
1800;DHT22;919;48.274;12.292;2023-05-24T14:16:53;18.70;99.90
1800;DHT22;919;48.274;12.292;2023-05-24T14:19:20;18.70;99.90
1800;DHT22;919;48.274;12.292;2023-05-24T14:21:47;18.80;99.90
1800;DHT22;919;48.274;12.292;2023-05-24T14:24:13;18.80;99.90
1800;DHT22;919;48.274;12.292;2023-05-24T14:26:40;18.70;99.90
1800;DHT22;919;48.274;12.292;2023-05-24T14:29:08;18.60;99.90
1800;DHT22;919;48.274;12.292;2023-05-24T14:31:35;18.70;99.90
1800;DHT22;919;48.274;12.292;2023-05-24T14:34:07;18.70;99.90
1800;DHT22;919;48.274;12.292;2023-05-24T14:36:34;18.70;99.90
1800;DHT22;919;48.274;12.292;2023-05-24T14:39:01;18.50;99.90
1800;DHT22;919;48.274;12.292;2023-05-24T14:41:28;18.50;99.90
1800;DHT22;919;48.274;12.292;2023-05-24T14:43:55;18.40;99.90
1800;DHT22;919;48.274;12.292;2023-05-24T14:46:23;18.30;99.90
1800;DHT22;919;48.274;12.292;2023-05-24T14:48:49;18.20;99.90
1800;DHT22;919;48.274;12.292;2023-05-24T14:51:16;18.00;99.90
1800;DHT22;919;48.274;12.292;2023-05-24T14:53:43;17.90;99.90
1800;DHT22;919;48.274;12.292;2023-05-24T14:56:10;17.90;99.90
1800;DHT22;919;48.274;12.292;2023-05-24T14:58:38;17.90;99.90
1800;DHT22;919;48.274;12.292;2023-05-24T15:01:05;17.80;99.90
1800;DHT22;919;48.274;12.292;2023-05-24T15:03:33;17.90;99.90
1800;DHT22;919;48.274;12.292;2023-05-24T15:06:00;17.80;99.90
1800;DHT22;919;48.274;12.292;2023-05-24T15:08:28;17.80;99.90
1800;DHT22;919;48.274;12.292;2023-05-24T15:10:55;17.70;99.90
1800;DHT22;919;48.274;12.292;2023-05-24T15:13:22;17.70;99.90
1800;DHT22;919;48.274;12.292;2023-05-24T15:15:50;17.70;99.90
1800;DHT22;919;48.274;12.292;2023-05-24T15:18:18;17.60;99.90
1800;DHT22;919;48.274;12.292;2023-05-24T15:20:46;17.40;99.90
1800;DHT22;919;48.274;12.292;2023-05-24T15:23:12;17.40;99.90
1800;DHT22;919;48.274;12.292;2023-05-24T15:25:39;17.30;99.90
1800;DHT22;919;48.274;12.292;2023-05-24T15:28:07;17.30;99.90
1800;DHT22;919;48.274;12.292;2023-05-24T15:30:35;17.20;99.90
1800;DHT22;919;48.274;12.292;2023-05-24T15:33:02;17.20;99.90
1800;DHT22;919;48.274;12.292;2023-05-24T15:35:29;17.20;99.90
1800;DHT22;919;48.274;12.292;2023-05-24T15:37:57;17.20;99.90
1800;DHT22;919;48.274;12.292;2023-05-24T15:40:24;17.20;99.90
1800;DHT22;919;48.274;12.292;2023-05-24T15:42:51;17.20;99.90
1800;DHT22;919;48.274;12.292;2023-05-24T15:45:18;17.20;99.90
1800;DHT22;919;48.274;12.292;2023-05-24T15:47:45;17.20;99.90
1800;DHT22;919;48.274;12.292;2023-05-24T15:50:12;17.20;99.90
1800;DHT22;919;48.274;12.292;2023-05-24T15:52:39;17.10;99.90
1800;DHT22;919;48.274;12.292;2023-05-24T15:55:08;17.10;99.90
1800;DHT22;919;48.274;12.292;2023-05-24T15:57:35;17.10;99.90
1800;DHT22;919;48.274;12.292;2023-05-24T16:00:03;17.10;99.90
1800;DHT22;919;48.274;12.292;2023-05-24T16:02:29;17.10;99.90
1800;DHT22;919;48.274;12.292;2023-05-24T16:04:56;17.10;99.90